Time;durP1;ratioP1;P1;durP2;ratioP2;P2;SDS_P1;SDS_P2;PMS_P1;PMS_P2;Temp;Humidity;BMP_temperature;BMP_pressure;BME280_temperature;BME280_humidity;BME280_pressure;Samples;Min_cycle;Max_cycle;Signal;HPM_P1;HPM_P2
2023/03/21 00:00:37;;;;;;;9.13;4.00;;;;;;;;;;5114116;28;20347;-76
2023/03/21 00:03:06;;;;;;;14.97;4.80;;;;;;;;;;5113919;28;20228;-76
2023/03/21 00:05:33;;;;;;;11.07;4.57;;;;;;;;;;5114178;28;20206;-76
2023/03/21 00:08:00;;;;;;;12.43;4.33;;;;;;;;;;5113586;28;20197;-76
2023/03/21 00:10:27;;;;;;;12.00;4.60;;;;;;;;;;5113667;28;20282;-76
2023/03/21 00:12:57;;;;;;;9.53;4.23;;;;;;;;;;5114046;28;20237;-76
2023/03/21 00:15:26;;;;;;;10.30;4.07;;;;;;;;;;5113499;28;20686;-75
2023/03/21 00:17:57;;;;;;;9.33;3.80;;;;;;;;;;5113451;28;20712;-76
2023/03/21 00:20:25;;;;;;;11.90;4.03;;;;;;;;;;5113938;28;20199;-75
2023/03/21 00:22:52;;;;;;;10.00;4.73;;;;;;;;;;5113782;28;20288;-76
2023/03/21 00:25:20;;;;;;;10.10;4.57;;;;;;;;;;5113592;28;20280;-76
2023/03/21 00:27:47;;;;;;;13.27;4.40;;;;;;;;;;5113342;28;20221;-76
2023/03/21 00:30:15;;;;;;;11.03;4.30;;;;;;;;;;5113227;28;20284;-76
2023/03/21 00:32:42;;;;;;;13.83;4.77;;;;;;;;;;5113524;28;20300;-76
2023/03/21 00:35:09;;;;;;;12.97;4.43;;;;;;;;;;5112699;28;20198;-76
2023/03/21 00:37:38;;;;;;;10.77;4.10;;;;;;;;;;5111326;28;20288;-75
2023/03/21 00:40:09;;;;;;;11.20;4.40;;;;;;;;;;5113092;28;20231;-76
2023/03/21 00:42:36;;;;;;;11.57;4.30;;;;;;;;;;5113246;28;20229;-75
2023/03/21 00:45:04;;;;;;;12.27;4.40;;;;;;;;;;5113171;28;20284;-76
2023/03/21 00:47:31;;;;;;;7.90;4.30;;;;;;;;;;5112618;28;20379;-74
2023/03/21 00:49:58;;;;;;;10.07;5.17;;;;;;;;;;5095734;28;20247;-76
2023/03/21 00:52:25;;;;;;;13.00;4.43;;;;;;;;;;5112893;28;20284;-76
2023/03/21 00:54:54;;;;;;;12.17;4.60;;;;;;;;;;5112836;28;20190;-75
2023/03/21 00:57:21;;;;;;;12.10;4.23;;;;;;;;;;5112951;28;20198;-75
2023/03/21 00:59:48;;;;;;;11.57;4.40;;;;;;;;;;5112457;28;21010;-76
2023/03/21 01:02:21;;;;;;;10.50;4.20;;;;;;;;;;5113540;28;20217;-76
2023/03/21 01:04:49;;;;;;;11.13;4.07;;;;;;;;;;5112199;28;20205;-75
2023/03/21 01:07:16;;;;;;;9.67;4.00;;;;;;;;;;5112706;28;20225;-75
2023/03/21 01:09:43;;;;;;;10.40;4.17;;;;;;;;;;5111959;28;20284;-75
2023/03/21 01:12:12;;;;;;;9.20;3.63;;;;;;;;;;5112777;28;20356;-75
2023/03/21 01:14:39;;;;;;;8.83;3.63;;;;;;;;;;5112311;28;20289;-75
2023/03/21 01:17:07;;;;;;;8.57;3.67;;;;;;;;;;5112711;28;20197;-75
2023/03/21 01:19:34;;;;;;;8.60;3.70;;;;;;;;;;5111886;28;20189;-76
2023/03/21 01:22:01;;;;;;;8.57;3.37;;;;;;;;;;5112354;28;20671;-75
2023/03/21 01:24:29;;;;;;;8.83;3.70;;;;;;;;;;5112438;28;20229;-76
2023/03/21 01:26:56;;;;;;;11.43;3.73;;;;;;;;;;5112509;28;20294;-76
2023/03/21 01:29:25;;;;;;;7.77;3.20;;;;;;;;;;5112264;28;20286;-75
2023/03/21 01:31:52;;;;;;;7.90;3.77;;;;;;;;;;5112487;28;20312;-76
2023/03/21 01:34:19;;;;;;;8.93;3.70;;;;;;;;;;5112297;28;20220;-75
2023/03/21 01:36:46;;;;;;;8.33;3.37;;;;;;;;;;5111514;28;20666;-76
2023/03/21 01:39:13;;;;;;;7.80;3.47;;;;;;;;;;5112038;28;20186;-76
2023/03/21 01:41:42;;;;;;;8.93;3.77;;;;;;;;;;5112191;28;20297;-76
2023/03/21 01:44:12;;;;;;;12.97;3.80;;;;;;;;;;5112010;28;20190;-76
2023/03/21 01:46:43;;;;;;;10.10;3.70;;;;;;;;;;5111487;28;20345;-75
2023/03/21 01:49:15;;;;;;;9.23;3.77;;;;;;;;;;5111480;28;20194;-75
2023/03/21 01:51:44;;;;;;;13.03;4.40;;;;;;;;;;5111226;28;20638;-76
2023/03/21 01:54:15;;;;;;;10.33;3.73;;;;;;;;;;5111505;28;20193;-76
2023/03/21 01:56:45;;;;;;;7.87;3.50;;;;;;;;;;5111634;28;20232;-76
2023/03/21 01:59:16;;;;;;;9.70;3.50;;;;;;;;;;5111643;28;20200;-76
2023/03/21 02:01:45;;;;;;;8.97;3.37;;;;;;;;;;5111950;28;20189;-76
2023/03/21 02:04:12;;;;;;;6.70;3.37;;;;;;;;;;5111176;28;20262;-75
2023/03/21 02:06:44;;;;;;;8.80;3.37;;;;;;;;;;5111519;28;20304;-76
2023/03/21 02:09:14;;;;;;;8.30;4.07;;;;;;;;;;5111870;28;20218;-75
2023/03/21 02:11:45;;;;;;;11.00;3.70;;;;;;;;;;5110911;28;20277;-76
2023/03/21 02:14:13;;;;;;;6.23;3.57;;;;;;;;;;5111698;28;20926;-75
2023/03/21 02:16:44;;;;;;;12.33;3.60;;;;;;;;;;5110955;28;20292;-76
2023/03/21 02:19:25;;;;;;;11.17;3.63;;;;;;;;;;5111521;28;20228;-75
2023/03/21 02:22:10;;;;;;;10.07;3.80;;;;;;;;;;5111455;28;20198;-76
2023/03/21 02:24:52;;;;;;;7.07;3.30;;;;;;;;;;5101385;28;20684;-76
2023/03/21 02:27:22;;;;;;;9.67;3.23;;;;;;;;;;5108728;28;20642;-75
2023/03/21 02:30:08;;;;;;;8.77;3.40;;;;;;;;;;5111484;28;20221;-76
2023/03/21 02:32:42;;;;;;;11.37;3.37;;;;;;;;;;5110975;28;20219;-76
2023/03/21 02:35:22;;;;;;;8.83;3.37;;;;;;;;;;5111201;28;20284;-76
2023/03/21 02:37:54;;;;;;;10.03;2.97;;;;;;;;;;5110986;28;20869;-76
2023/03/21 02:40:24;;;;;;;8.40;3.27;;;;;;;;;;5111483;28;20215;-77
2023/03/21 02:42:55;;;;;;;8.57;3.27;;;;;;;;;;5111746;28;20204;-75
2023/03/21 02:45:26;;;;;;;10.47;3.40;;;;;;;;;;5110943;28;20284;-75
2023/03/21 02:47:56;;;;;;;7.20;3.03;;;;;;;;;;5110185;28;20312;-76
2023/03/21 02:50:25;;;;;;;9.07;3.37;;;;;;;;;;5102975;28;20250;-76
2023/03/21 02:52:54;;;;;;;8.00;2.70;;;;;;;;;;5111800;28;20236;-76
2023/03/21 02:55:24;;;;;;;5.90;2.93;;;;;;;;;;5110461;28;20277;-76
2023/03/21 02:57:53;;;;;;;8.00;3.30;;;;;;;;;;5110786;28;20198;-75
2023/03/21 03:00:22;;;;;;;8.67;3.50;;;;;;;;;;5112942;28;20240;-75
2023/03/21 03:02:49;;;;;;;8.93;2.97;;;;;;;;;;5115312;28;20289;-75
2023/03/21 03:05:17;;;;;;;10.67;3.43;;;;;;;;;;5114894;28;20192;-76
2023/03/21 03:07:50;;;;;;;6.10;3.23;;;;;;;;;;5114757;28;20317;-76
2023/03/21 03:10:29;;;;;;;5.67;3.07;;;;;;;;;;5115225;28;20699;-76
2023/03/21 03:13:00;;;;;;;6.47;3.53;;;;;;;;;;5114890;28;20240;-75
2023/03/21 03:15:34;;;;;;;7.87;3.10;;;;;;;;;;5114782;28;20268;-76
2023/03/21 03:18:03;;;;;;;8.20;3.10;;;;;;;;;;5098302;28;20217;-76
2023/03/21 03:20:33;;;;;;;6.90;3.00;;;;;;;;;;5115006;28;20226;-75
2023/03/21 03:23:07;;;;;;;7.23;3.30;;;;;;;;;;5114777;28;20221;-75
2023/03/21 03:25:40;;;;;;;8.80;3.20;;;;;;;;;;5114415;28;20278;-76
2023/03/21 03:28:08;;;;;;;6.07;3.30;;;;;;;;;;5114917;28;20231;-75
2023/03/21 03:30:36;;;;;;;6.87;3.20;;;;;;;;;;5114474;28;20279;-76
2023/03/21 03:33:06;;;;;;;4.87;3.00;;;;;;;;;;5114538;27;20556;-76
2023/03/21 03:35:34;;;;;;;6.83;3.17;;;;;;;;;;5114491;28;20192;-75
2023/03/21 03:38:02;;;;;;;5.87;2.73;;;;;;;;;;5114776;27;20196;-76
2023/03/21 03:40:31;;;;;;;7.97;2.87;;;;;;;;;;5114497;28;20221;-76
2023/03/21 03:43:03;;;;;;;8.33;3.03;;;;;;;;;;5114432;28;20231;-75
2023/03/21 03:45:33;;;;;;;7.07;3.03;;;;;;;;;;5114066;28;20287;-75
2023/03/21 03:48:05;;;;;;;6.93;3.10;;;;;;;;;;5098248;28;20293;-77
2023/03/21 03:50:33;;;;;;;10.27;3.40;;;;;;;;;;5114081;28;20651;-76
2023/03/21 03:53:02;;;;;;;7.07;3.07;;;;;;;;;;5114447;28;20280;-76
2023/03/21 03:55:33;;;;;;;9.67;3.23;;;;;;;;;;5113953;28;20673;-75
2023/03/21 03:58:02;;;;;;;7.70;3.27;;;;;;;;;;5098008;28;20201;-76
2023/03/21 04:00:32;;;;;;;8.37;3.23;;;;;;;;;;5113538;28;20647;-76
2023/03/21 04:02:59;;;;;;;6.37;3.40;;;;;;;;;;5113961;28;20743;-76
2023/03/21 04:05:26;;;;;;;9.83;3.60;;;;;;;;;;5113905;28;20338;-74
2023/03/21 04:07:54;;;;;;;6.00;3.33;;;;;;;;;;5113531;28;20305;-75
2023/03/21 04:10:21;;;;;;;8.67;3.47;;;;;;;;;;5113960;28;20199;-75
2023/03/21 04:12:49;;;;;;;8.97;3.57;;;;;;;;;;5113701;28;20984;-75
2023/03/21 04:15:19;;;;;;;7.37;3.67;;;;;;;;;;5113734;28;20610;-75
2023/03/21 04:17:46;;;;;;;10.50;3.53;;;;;;;;;;5113688;28;20206;-76
2023/03/21 04:20:14;;;;;;;6.40;3.07;;;;;;;;;;5113929;28;20196;-76
2023/03/21 04:22:41;;;;;;;9.23;3.83;;;;;;;;;;5113766;28;20306;-76
2023/03/21 04:25:09;;;;;;;8.67;3.93;;;;;;;;;;5113841;28;20284;-76
2023/03/21 04:27:36;;;;;;;6.40;3.30;;;;;;;;;;5113078;28;20228;-76
2023/03/21 04:30:06;;;;;;;8.77;3.60;;;;;;;;;;5113333;28;20292;-76
2023/03/21 04:32:38;;;;;;;7.83;3.70;;;;;;;;;;5113824;28;20196;-74
2023/03/21 04:35:05;;;;;;;7.10;3.40;;;;;;;;;;5113794;28;20216;-76
2023/03/21 04:37:33;;;;;;;5.37;3.07;;;;;;;;;;5113723;28;20276;-77
2023/03/21 04:40:02;;;;;;;10.37;3.90;;;;;;;;;;5113793;28;20304;-76
2023/03/21 04:42:29;;;;;;;9.53;3.60;;;;;;;;;;5113437;28;20193;-75
2023/03/21 04:44:57;;;;;;;8.83;3.70;;;;;;;;;;5113472;28;20233;-76
2023/03/21 04:47:24;;;;;;;8.97;3.73;;;;;;;;;;5113035;28;20687;-75
2023/03/21 04:49:52;;;;;;;12.10;3.60;;;;;;;;;;5113163;28;20232;-76
2023/03/21 04:52:20;;;;;;;8.33;3.70;;;;;;;;;;5113544;28;20586;-76
2023/03/21 04:54:47;;;;;;;8.57;3.67;;;;;;;;;;5112969;28;20230;-76
2023/03/21 04:57:14;;;;;;;9.57;3.60;;;;;;;;;;5112566;28;20231;-75
2023/03/21 04:59:41;;;;;;;7.40;3.77;;;;;;;;;;5112860;28;20198;-75
2023/03/21 05:02:09;;;;;;;8.27;3.10;;;;;;;;;;5112803;28;20258;-75
2023/03/21 05:04:36;;;;;;;7.53;3.50;;;;;;;;;;5112519;28;20200;-76
2023/03/21 05:07:05;;;;;;;10.23;3.47;;;;;;;;;;5112832;28;20642;-76
2023/03/21 05:09:32;;;;;;;8.40;3.40;;;;;;;;;;5112805;28;20288;-76
2023/03/21 05:11:59;;;;;;;8.67;3.90;;;;;;;;;;5112184;28;20684;-76
2023/03/21 05:14:27;;;;;;;9.03;3.67;;;;;;;;;;5112773;28;20218;-76
2023/03/21 05:16:55;;;;;;;11.57;4.10;;;;;;;;;;5112667;28;20223;-76
2023/03/21 05:19:23;;;;;;;7.57;4.00;;;;;;;;;;5112653;28;20288;-76
2023/03/21 05:21:50;;;;;;;11.83;4.20;;;;;;;;;;5112050;28;20273;-75
2023/03/21 05:24:20;;;;;;;10.43;4.83;;;;;;;;;;5112318;28;20289;-77
2023/03/21 05:26:51;;;;;;;7.50;4.33;;;;;;;;;;5112520;28;20194;-76
2023/03/21 05:29:18;;;;;;;7.47;4.20;;;;;;;;;;5112095;28;20708;-76
2023/03/21 05:31:46;;;;;;;11.43;5.10;;;;;;;;;;5112229;28;20283;-76
2023/03/21 05:34:13;;;;;;;13.13;5.03;;;;;;;;;;5112648;28;20280;-76
2023/03/21 05:36:41;;;;;;;9.00;5.40;;;;;;;;;;5112229;28;20298;-76
2023/03/21 05:39:08;;;;;;;10.60;5.07;;;;;;;;;;5112552;28;20620;-76
2023/03/21 05:41:36;;;;;;;12.27;5.30;;;;;;;;;;5111784;28;20277;-76
2023/03/21 05:44:03;;;;;;;10.77;5.40;;;;;;;;;;5111945;28;20281;-76
2023/03/21 05:46:31;;;;;;;11.57;5.30;;;;;;;;;;5111539;28;20764;-76
2023/03/21 05:48:58;;;;;;;13.20;5.67;;;;;;;;;;5110942;28;20667;-76
2023/03/21 05:51:25;;;;;;;10.67;6.07;;;;;;;;;;5111139;28;20305;-76
2023/03/21 05:53:52;;;;;;;12.43;5.40;;;;;;;;;;5111456;28;20239;-75
2023/03/21 05:56:19;;;;;;;13.07;6.00;;;;;;;;;;5111159;28;20193;-75
2023/03/21 05:58:48;;;;;;;10.77;5.83;;;;;;;;;;5110888;28;20221;-77
2023/03/21 06:01:15;;;;;;;13.33;6.17;;;;;;;;;;5111012;28;20288;-76
2023/03/21 06:03:42;;;;;;;11.73;6.17;;;;;;;;;;5111198;28;20677;-75
2023/03/21 06:06:10;;;;;;;12.07;5.90;;;;;;;;;;5111023;28;20232;-75
2023/03/21 06:08:37;;;;;;;13.67;7.03;;;;;;;;;;5110891;28;20318;-76
2023/03/21 06:11:04;;;;;;;11.03;6.43;;;;;;;;;;5111007;28;20229;-75
2023/03/21 06:13:32;;;;;;;14.87;6.90;;;;;;;;;;5110827;28;20299;-76
2023/03/21 06:16:00;;;;;;;15.20;7.00;;;;;;;;;;5094154;28;20197;-75
2023/03/21 06:18:28;;;;;;;12.90;7.00;;;;;;;;;;5110469;28;20236;-76
2023/03/21 06:20:56;;;;;;;12.30;7.57;;;;;;;;;;5110699;28;20284;-75
2023/03/21 06:23:23;;;;;;;13.87;7.70;;;;;;;;;;5110513;28;20550;-77
2023/03/21 06:25:50;;;;;;;13.97;7.97;;;;;;;;;;5110838;28;20247;-75
2023/03/21 06:28:17;;;;;;;16.67;8.27;;;;;;;;;;5110587;28;20213;-76
2023/03/21 06:30:45;;;;;;;15.00;8.50;;;;;;;;;;5110595;28;20226;-75
2023/03/21 06:33:13;;;;;;;13.00;8.60;;;;;;;;;;5109935;28;20288;-75
2023/03/21 06:35:40;;;;;;;15.57;8.90;;;;;;;;;;5124533;28;20220;-75
2023/03/21 06:38:08;;;;;;;15.10;9.20;;;;;;;;;;5118623;28;20304;-76
2023/03/21 06:40:35;;;;;;;21.17;9.73;;;;;;;;;;5110367;28;20672;-77
2023/03/21 06:43:02;;;;;;;14.80;9.33;;;;;;;;;;5108546;28;20273;-76
2023/03/21 06:45:30;;;;;;;15.80;9.93;;;;;;;;;;5064824;28;1265294;-75
2023/03/21 06:47:57;;;;;;;14.63;9.30;;;;;;;;;;5107876;28;20321;-77
2023/03/21 06:50:25;;;;;;;14.67;8.63;;;;;;;;;;5111691;28;20662;-77
2023/03/21 06:52:53;;;;;;;13.33;8.97;;;;;;;;;;5111447;28;20293;-77
2023/03/21 06:55:24;;;;;;;14.70;9.63;;;;;;;;;;5111398;28;20221;-77
2023/03/21 06:57:52;;;;;;;15.83;8.60;;;;;;;;;;5110997;28;20207;-77
2023/03/21 07:00:20;;;;;;;14.47;9.13;;;;;;;;;;5111730;28;20629;-78
2023/03/21 07:02:47;;;;;;;16.83;9.30;;;;;;;;;;5111164;28;20200;-78
2023/03/21 07:05:14;;;;;;;14.10;9.27;;;;;;;;;;5111389;28;20250;-77
2023/03/21 07:07:43;;;;;;;12.63;8.90;;;;;;;;;;5111464;28;20229;-78
2023/03/21 07:10:10;;;;;;;18.30;8.73;;;;;;;;;;5111606;28;20286;-78
2023/03/21 07:12:38;;;;;;;14.40;7.67;;;;;;;;;;5111600;28;20726;-77
2023/03/21 07:15:06;;;;;;;11.33;8.30;;;;;;;;;;5111745;28;20221;-77
2023/03/21 07:17:33;;;;;;;11.13;6.80;;;;;;;;;;5111397;28;20202;-77
2023/03/21 07:20:01;;;;;;;12.20;6.73;;;;;;;;;;5111836;28;20282;-77
2023/03/21 07:22:28;;;;;;;12.33;7.10;;;;;;;;;;5110906;28;20293;-77
2023/03/21 07:24:56;;;;;;;12.00;6.93;;;;;;;;;;5111747;28;20280;-77
2023/03/21 07:27:24;;;;;;;11.10;7.43;;;;;;;;;;5111159;28;20194;-77
2023/03/21 07:29:51;;;;;;;15.47;7.20;;;;;;;;;;5111148;28;20324;-77
2023/03/21 07:32:18;;;;;;;15.23;7.37;;;;;;;;;;5111228;28;20284;-78
2023/03/21 07:34:45;;;;;;;9.27;6.43;;;;;;;;;;5111682;28;20221;-77
2023/03/21 07:37:12;;;;;;;10.23;6.77;;;;;;;;;;5111134;28;20282;-78
2023/03/21 07:39:40;;;;;;;7.80;5.80;;;;;;;;;;5111368;28;20285;-78
2023/03/21 07:42:10;;;;;;;7.03;5.77;;;;;;;;;;5111388;28;20198;-77
2023/03/21 07:44:37;;;;;;;8.10;5.70;;;;;;;;;;5111140;28;20197;-76
2023/03/21 07:47:05;;;;;;;7.57;5.40;;;;;;;;;;5114217;28;20325;-77
2023/03/21 07:49:32;;;;;;;6.93;5.20;;;;;;;;;;5114897;28;20328;-77
2023/03/21 07:52:00;;;;;;;8.47;5.27;;;;;;;;;;5114579;28;20299;-77
2023/03/21 07:54:28;;;;;;;8.03;5.60;;;;;;;;;;5114742;28;20194;-77
2023/03/21 07:56:55;;;;;;;5.50;4.60;;;;;;;;;;5114608;28;20189;-78
2023/03/21 07:59:24;;;;;;;7.03;4.60;;;;;;;;;;5115409;28;20213;-77
2023/03/21 08:01:51;;;;;;;6.47;4.60;;;;;;;;;;5114660;28;20713;-78
2023/03/21 08:04:19;;;;;;;6.67;4.67;;;;;;;;;;5114664;28;20268;-78
2023/03/21 08:06:46;;;;;;;4.63;4.10;;;;;;;;;;5114451;28;20832;-77
2023/03/21 08:09:13;;;;;;;7.83;3.97;;;;;;;;;;5114106;28;20749;-78
2023/03/21 08:11:41;;;;;;;6.00;4.20;;;;;;;;;;5114672;28;20217;-78
2023/03/21 08:14:08;;;;;;;4.73;3.57;;;;;;;;;;5113890;28;20675;-78
2023/03/21 08:16:37;;;;;;;6.80;4.10;;;;;;;;;;5114149;28;20284;-78
2023/03/21 08:19:04;;;;;;;6.63;3.90;;;;;;;;;;5114779;28;20280;-77
2023/03/21 08:21:31;;;;;;;5.47;3.70;;;;;;;;;;5113965;28;20197;-78
2023/03/21 08:23:58;;;;;;;5.43;4.07;;;;;;;;;;5114323;28;20616;-78
2023/03/21 08:26:25;;;;;;;5.73;3.67;;;;;;;;;;5114373;28;20225;-78
2023/03/21 08:28:52;;;;;;;5.37;3.67;;;;;;;;;;5114315;28;20316;-78
2023/03/21 08:31:21;;;;;;;4.33;3.40;;;;;;;;;;5114190;28;20714;-79
2023/03/21 08:33:53;;;;;;;5.27;3.90;;;;;;;;;;5113381;28;20198;-78
2023/03/21 08:36:20;;;;;;;7.67;3.67;;;;;;;;;;5113746;28;20182;-77
2023/03/21 08:38:47;;;;;;;3.70;3.23;;;;;;;;;;5113854;28;20258;-78
2023/03/21 08:41:15;;;;;;;5.10;3.20;;;;;;;;;;5113752;28;20587;-78
2023/03/21 08:43:42;;;;;;;4.30;3.20;;;;;;;;;;5113942;27;20288;-78
2023/03/21 08:46:09;;;;;;;4.53;3.70;;;;;;;;;;5113420;28;20321;-77
2023/03/21 08:48:37;;;;;;;3.93;3.53;;;;;;;;;;5113100;28;20320;-77
2023/03/21 08:51:06;;;;;;;3.90;3.50;;;;;;;;;;5113533;28;20681;-78
2023/03/21 08:53:34;;;;;;;3.90;3.23;;;;;;;;;;5114187;28;20224;-77
2023/03/21 08:56:01;;;;;;;4.60;3.60;;;;;;;;;;5113529;28;20201;-78
2023/03/21 08:58:28;;;;;;;5.43;3.13;;;;;;;;;;5112544;28;20617;-77
2023/03/21 09:00:55;;;;;;;4.27;2.90;;;;;;;;;;5113679;28;20280;-78
2023/03/21 09:03:22;;;;;;;5.53;2.70;;;;;;;;;;5112641;28;20583;-79
2023/03/21 09:05:51;;;;;;;4.10;2.80;;;;;;;;;;5113143;28;20244;-79
2023/03/21 09:08:22;;;;;;;3.67;2.63;;;;;;;;;;5113653;28;20689;-78
2023/03/21 09:10:49;;;;;;;4.47;2.70;;;;;;;;;;5113316;28;20198;-78
2023/03/21 09:13:16;;;;;;;3.37;2.37;;;;;;;;;;5113355;28;20208;-78
2023/03/21 09:15:44;;;;;;;4.73;2.37;;;;;;;;;;5113071;28;20281;-79
2023/03/21 09:18:16;;;;;;;4.30;2.27;;;;;;;;;;5112975;28;20225;-78
2023/03/21 09:20:45;;;;;;;5.00;1.97;;;;;;;;;;5113331;28;20193;-77
2023/03/21 09:23:13;;;;;;;3.83;1.70;;;;;;;;;;5112913;28;20190;-79
2023/03/21 09:25:42;;;;;;;3.17;1.80;;;;;;;;;;5112835;27;20225;-77
2023/03/21 09:28:09;;;;;;;5.28;1.77;;;;;;;;;;5112658;28;20210;-78
2023/03/21 09:30:37;;;;;;;2.53;1.30;;;;;;;;;;5113058;28;20222;-78
2023/03/21 09:33:07;;;;;;;2.70;1.30;;;;;;;;;;5112575;28;20222;-77
2023/03/21 09:35:34;;;;;;;5.03;1.52;;;;;;;;;;5112696;28;20229;-79
2023/03/21 09:38:02;;;;;;;6.75;1.98;;;;;;;;;;5113111;28;20220;-79
2023/03/21 09:40:40;;;;;;;8.30;1.50;;;;;;;;;;5112967;28;20204;-79
2023/03/21 09:43:15;;;;;;;5.63;1.27;;;;;;;;;;5112690;28;20224;-78
2023/03/21 09:45:45;;;;;;;3.20;1.10;;;;;;;;;;5112588;28;20197;-80
2023/03/21 09:48:18;;;;;;;4.43;1.38;;;;;;;;;;5112206;28;20276;-79
2023/03/21 09:50:46;;;;;;;3.53;1.02;;;;;;;;;;5112992;28;20230;-79
2023/03/21 09:53:15;;;;;;;5.03;1.40;;;;;;;;;;5112536;28;20194;-79
2023/03/21 09:55:43;;;;;;;6.18;1.42;;;;;;;;;;5112512;28;20200;-79
2023/03/21 09:58:17;;;;;;;3.92;0.98;;;;;;;;;;5112222;28;20245;-79
2023/03/21 10:00:46;;;;;;;5.20;1.33;;;;;;;;;;5112056;27;20202;-79
2023/03/21 10:03:22;;;;;;;3.55;1.13;;;;;;;;;;5112336;28;20198;-79
2023/03/21 10:05:51;;;;;;;5.15;1.50;;;;;;;;;;5112440;28;20196;-79
2023/03/21 10:08:21;;;;;;;5.30;1.45;;;;;;;;;;5112438;28;20221;-79
2023/03/21 10:10:49;;;;;;;7.57;1.40;;;;;;;;;;5112071;28;20197;-79
2023/03/21 10:13:20;;;;;;;3.53;1.40;;;;;;;;;;5112121;28;20255;-79
2023/03/21 10:15:48;;;;;;;5.47;1.38;;;;;;;;;;5111768;28;20270;-79
2023/03/21 10:18:22;;;;;;;6.65;1.50;;;;;;;;;;5112688;28;20229;-79
2023/03/21 10:20:50;;;;;;;5.18;1.30;;;;;;;;;;5112059;28;20612;-78
2023/03/21 10:23:19;;;;;;;6.32;1.55;;;;;;;;;;5112019;28;20190;-79
2023/03/21 10:25:49;;;;;;;5.93;1.70;;;;;;;;;;5111937;28;20280;-78
2023/03/21 10:28:17;;;;;;;6.88;1.52;;;;;;;;;;5112433;28;20202;-78
2023/03/21 10:30:47;;;;;;;5.70;1.38;;;;;;;;;;5111537;28;20285;-78
2023/03/21 10:33:16;;;;;;;5.25;1.60;;;;;;;;;;5112000;28;20225;-79
2023/03/21 10:35:45;;;;;;;6.07;1.27;;;;;;;;;;5111873;28;20220;-78
2023/03/21 10:38:16;;;;;;;7.15;1.42;;;;;;;;;;5112293;28;20282;-78
2023/03/21 10:40:43;;;;;;;5.65;1.90;;;;;;;;;;5111822;28;20396;-79
2023/03/21 10:43:17;;;;;;;7.88;1.90;;;;;;;;;;5111877;28;20280;-79
2023/03/21 10:45:47;;;;;;;7.78;1.85;;;;;;;;;;5111448;28;20288;-78
2023/03/21 10:48:15;;;;;;;5.40;1.65;;;;;;;;;;5111825;28;20807;-77
2023/03/21 10:50:42;;;;;;;4.68;1.35;;;;;;;;;;5111789;28;20326;-78
2023/03/21 10:53:15;;;;;;;7.15;1.77;;;;;;;;;;5111682;28;20739;-79
2023/03/21 10:55:43;;;;;;;6.60;1.40;;;;;;;;;;5111532;28;20228;-79
2023/03/21 10:58:17;;;;;;;6.00;1.73;;;;;;;;;;5111603;28;20198;-78
2023/03/21 11:00:46;;;;;;;4.57;1.38;;;;;;;;;;5111300;28;20225;-78
2023/03/21 11:03:21;;;;;;;5.63;1.25;;;;;;;;;;5112068;28;20285;-78
2023/03/21 11:05:49;;;;;;;6.25;1.70;;;;;;;;;;5111029;28;20232;-79
2023/03/21 11:08:18;;;;;;;6.50;1.48;;;;;;;;;;5111503;28;20251;-79
2023/03/21 11:10:51;;;;;;;4.72;1.13;;;;;;;;;;5111724;28;20197;-79
2023/03/21 11:13:20;;;;;;;4.70;1.33;;;;;;;;;;5111063;28;20206;-79
2023/03/21 11:15:52;;;;;;;6.55;1.60;;;;;;;;;;5111527;28;20189;-80
2023/03/21 11:18:21;;;;;;;5.53;1.55;;;;;;;;;;5111948;28;20232;-79
2023/03/21 11:20:50;;;;;;;5.25;1.40;;;;;;;;;;5112523;28;20269;-79
2023/03/21 11:23:18;;;;;;;7.10;1.77;;;;;;;;;;5115056;28;20289;-79
2023/03/21 11:25:48;;;;;;;4.47;1.20;;;;;;;;;;5115297;28;20231;-79
2023/03/21 11:28:17;;;;;;;4.72;1.45;;;;;;;;;;5115422;28;20277;-78
2023/03/21 11:30:52;;;;;;;5.97;1.52;;;;;;;;;;5115114;28;20244;-79
2023/03/21 11:33:22;;;;;;;5.82;1.15;;;;;;;;;;5115274;28;20218;-79
2023/03/21 11:35:59;;;;;;;6.53;1.38;;;;;;;;;;5114971;27;20197;-80
2023/03/21 11:38:27;;;;;;;5.63;1.35;;;;;;;;;;5115107;28;20193;-79
2023/03/21 11:40:54;;;;;;;5.28;1.50;;;;;;;;;;5115326;28;20260;-79
2023/03/21 11:43:30;;;;;;;7.22;1.48;;;;;;;;;;5115069;28;20284;-79
2023/03/21 11:45:58;;;;;;;5.70;1.40;;;;;;;;;;5114810;28;20234;-80
2023/03/21 11:48:26;;;;;;;4.80;1.27;;;;;;;;;;5115411;28;20213;-78
2023/03/21 11:50:59;;;;;;;5.90;1.60;;;;;;;;;;5114830;28;20286;-79
2023/03/21 11:53:31;;;;;;;6.85;1.50;;;;;;;;;;5114804;28;20197;-79
2023/03/21 11:56:06;;;;;;;6.82;1.10;;;;;;;;;;5114836;28;20284;-79
2023/03/21 11:58:37;;;;;;;5.80;1.60;;;;;;;;;;5114515;28;20201;-79
2023/03/21 12:01:09;;;;;;;4.95;1.40;;;;;;;;;;5114634;28;20261;-79
2023/03/21 12:03:57;;;;;;;3.90;1.23;;;;;;;;;;5113128;28;20198;-79
2023/03/21 12:06:30;;;;;;;6.15;1.50;;;;;;;;;;5094100;28;20661;-79
2023/03/21 12:09:04;;;;;;;8.80;1.65;;;;;;;;;;5093792;28;20195;-79
2023/03/21 12:11:38;;;;;;;5.00;1.38;;;;;;;;;;5094207;28;20195;-78
2023/03/21 12:14:12;;;;;;;7.55;1.70;;;;;;;;;;5096839;28;20203;-78
2023/03/21 12:16:45;;;;;;;5.22;1.13;;;;;;;;;;5093817;28;20286;-78
2023/03/21 12:19:27;;;;;;;6.07;1.55;;;;;;;;;;5094111;28;20608;-77
2023/03/21 12:22:01;;;;;;;7.13;1.48;;;;;;;;;;5093575;28;20233;-79
2023/03/21 12:24:32;;;;;;;5.45;1.60;;;;;;;;;;5093665;28;20296;-76
2023/03/21 12:27:05;;;;;;;6.45;1.52;;;;;;;;;;5093284;28;20252;-78
2023/03/21 12:29:39;;;;;;;5.10;1.33;;;;;;;;;;5093597;28;20230;-78
2023/03/21 12:32:11;;;;;;;4.88;1.35;;;;;;;;;;5112670;28;20209;-77
2023/03/21 12:34:47;;;;;;;4.18;1.30;;;;;;;;;;5114312;28;20277;-78
2023/03/21 12:37:22;;;;;;;5.00;1.20;;;;;;;;;;5113644;28;20247;-78
2023/03/21 12:39:50;;;;;;;5.45;1.40;;;;;;;;;;5113622;28;20279;-77
2023/03/21 12:42:26;;;;;;;7.50;1.60;;;;;;;;;;5113418;28;20246;-78
2023/03/21 12:44:56;;;;;;;5.65;1.20;;;;;;;;;;5114040;28;20189;-78
2023/03/21 12:47:25;;;;;;;7.13;1.40;;;;;;;;;;5113619;28;20329;-78
2023/03/21 12:49:55;;;;;;;4.45;1.50;;;;;;;;;;5112985;28;20198;-79
2023/03/21 12:52:26;;;;;;;5.35;1.55;;;;;;;;;;5113615;28;20240;-79
2023/03/21 12:54:57;;;;;;;6.57;1.58;;;;;;;;;;5113131;28;20255;-80
2023/03/21 12:57:27;;;;;;;5.88;1.40;;;;;;;;;;5113546;28;20231;-77
2023/03/21 12:59:56;;;;;;;7.13;1.60;;;;;;;;;;5113322;28;20221;-80
2023/03/21 13:02:25;;;;;;;9.15;1.98;;;;;;;;;;5113597;28;20643;-79
2023/03/21 13:04:56;;;;;;;6.43;1.77;;;;;;;;;;5113080;28;20194;-80
2023/03/21 13:07:25;;;;;;;7.57;1.70;;;;;;;;;;5113137;28;20285;-77
2023/03/21 13:09:54;;;;;;;6.47;1.50;;;;;;;;;;5113181;28;20240;-78
2023/03/21 13:12:34;;;;;;;4.65;1.55;;;;;;;;;;5109162;27;20217;-79
2023/03/21 13:15:06;;;;;;;4.57;1.58;;;;;;;;;;5093109;28;20273;-78
2023/03/21 13:17:38;;;;;;;5.25;1.25;;;;;;;;;;5092867;28;20277;-78
2023/03/21 13:20:13;;;;;;;5.22;1.70;;;;;;;;;;5092894;28;20328;-78
2023/03/21 13:22:42;;;;;;;7.15;1.52;;;;;;;;;;5092648;28;20584;-76
2023/03/21 13:25:17;;;;;;;9.13;1.98;;;;;;;;;;5092462;28;20297;-78
2023/03/21 13:27:46;;;;;;;6.43;1.42;;;;;;;;;;5092523;28;20749;-78
2023/03/21 13:30:19;;;;;;;5.20;1.55;;;;;;;;;;5092724;28;20272;-75
2023/03/21 13:32:47;;;;;;;6.45;1.27;;;;;;;;;;5104470;28;20190;-75
2023/03/21 13:35:16;;;;;;;4.65;1.40;;;;;;;;;;5112049;28;20662;-74
2023/03/21 13:37:50;;;;;;;5.38;1.30;;;;;;;;;;5111248;28;20280;-75
2023/03/21 13:40:22;;;;;;;7.22;1.33;;;;;;;;;;5109911;28;20232;-75
2023/03/21 13:42:51;;;;;;;5.40;1.65;;;;;;;;;;5128832;27;20196;-74
2023/03/21 13:45:24;;;;;;;5.45;1.40;;;;;;;;;;5120895;27;20217;-74
2023/03/21 13:47:53;;;;;;;4.95;1.30;;;;;;;;;;5119727;27;20282;-74
2023/03/21 13:50:26;;;;;;;6.47;1.48;;;;;;;;;;5113942;27;20276;-74
2023/03/21 13:53:12;;;;;;;7.18;1.38;;;;;;;;;;5116690;27;20196;-74
2023/03/21 13:55:43;;;;;;;6.13;1.45;;;;;;;;;;5103907;28;20655;-74
2023/03/21 13:58:25;;;;;;;7.05;1.35;;;;;;;;;;5111909;28;20216;-74
2023/03/21 14:01:16;;;;;;;10.32;1.50;;;;;;;;;;5109085;28;20264;-73
2023/03/21 14:03:45;;;;;;;6.65;1.52;;;;;;;;;;5082606;27;20827;-73
2023/03/21 14:06:13;;;;;;;7.95;1.65;;;;;;;;;;5112032;28;20197;-75
2023/03/21 14:08:41;;;;;;;7.00;1.75;;;;;;;;;;5111652;28;20280;-77
2023/03/21 14:11:13;;;;;;;6.72;1.85;;;;;;;;;;5111692;28;20230;-76
2023/03/21 14:13:41;;;;;;;7.20;2.30;;;;;;;;;;5111394;28;20841;-76
2023/03/21 14:16:11;;;;;;;7.28;1.80;;;;;;;;;;5111584;28;20229;-76
2023/03/21 14:18:41;;;;;;;6.88;1.73;;;;;;;;;;5111837;28;20198;-76
2023/03/21 14:21:15;;;;;;;6.47;1.67;;;;;;;;;;5111405;28;20309;-73
2023/03/21 14:23:42;;;;;;;5.68;1.50;;;;;;;;;;5109847;28;20217;-76
2023/03/21 14:26:12;;;;;;;7.82;1.98;;;;;;;;;;5109306;27;20305;-76
2023/03/21 14:28:40;;;;;;;9.27;1.90;;;;;;;;;;5111057;28;20213;-76
2023/03/21 14:31:07;;;;;;;6.88;1.40;;;;;;;;;;5111560;28;20706;-75
2023/03/21 14:33:36;;;;;;;7.95;1.58;;;;;;;;;;5111724;28;20229;-76
2023/03/21 14:36:05;;;;;;;10.70;1.95;;;;;;;;;;5111656;28;20194;-77
2023/03/21 14:38:33;;;;;;;11.18;1.92;;;;;;;;;;5111494;28;20205;-76
2023/03/21 14:41:01;;;;;;;4.60;1.55;;;;;;;;;;5111076;28;20218;-77
2023/03/21 14:43:32;;;;;;;8.80;1.60;;;;;;;;;;5111191;28;20644;-75
2023/03/21 14:46:00;;;;;;;8.82;1.73;;;;;;;;;;5109015;28;20233;-76
2023/03/21 14:48:30;;;;;;;5.50;1.63;;;;;;;;;;5119965;28;20218;-76
2023/03/21 14:50:58;;;;;;;7.50;1.50;;;;;;;;;;5121727;28;20254;-75